Time;durP1;ratioP1;P1;durP2;ratioP2;P2;SDS_P1;SDS_P2;PMS_P1;PMS_P2;Temp;Humidity;BMP_temperature;BMP_pressure;BME280_temperature;BME280_humidity;BME280_pressure;Samples;Min_cycle;Max_cycle;Signal;HPM_P1;HPM_P2
2023/08/02 00:00:51;;;;;;;1.80;1.70;;;;;;;18.74;78.79;94917.97;5114194;28;20849;-81
2023/08/02 00:03:18;;;;;;;2.05;1.80;;;;;;;18.70;78.68;94914.28;5107640;28;20200;-81
2023/08/02 00:05:52;;;;;;;2.08;1.70;;;;;;;18.64;78.61;94923.88;5114878;28;20241;-81
2023/08/02 00:08:20;;;;;;;2.55;1.50;;;;;;;18.49;78.95;94923.63;5113820;28;20210;-80
2023/08/02 00:10:46;;;;;;;3.80;1.60;;;;;;;18.42;79.68;94943.91;5100544;28;20219;-82
2023/08/02 00:13:13;;;;;;;2.08;1.63;;;;;;;18.45;79.80;94944.22;5113335;28;20203;-81
2023/08/02 00:15:39;;;;;;;1.80;1.52;;;;;;;18.48;79.93;94946.31;5113735;28;20226;-81
2023/08/02 00:18:06;;;;;;;2.13;1.63;;;;;;;18.56;80.01;94953.72;5112172;28;20206;-81
2023/08/02 00:20:32;;;;;;;2.00;1.80;;;;;;;18.54;79.69;94947.19;5113413;28;20227;-81
2023/08/02 00:22:59;;;;;;;1.50;1.40;;;;;;;18.60;79.65;94941.03;5095059;28;20550;-82
2023/08/02 00:25:27;;;;;;;3.03;1.67;;;;;;;18.57;79.71;94944.09;5093614;28;20911;-80
2023/08/02 00:27:53;;;;;;;1.90;1.80;;;;;;;18.56;79.99;94942.50;5092990;28;20204;-81
2023/08/02 00:30:19;;;;;;;2.42;1.90;;;;;;;18.56;79.86;94940.69;5093237;28;20224;-80
2023/08/02 00:32:47;;;;;;;3.30;1.90;;;;;;;18.50;79.88;94931.22;5093425;28;20584;-81
2023/08/02 00:35:14;;;;;;;2.78;1.85;;;;;;;18.56;79.67;94937.28;5106686;28;20219;-81
2023/08/02 00:37:41;;;;;;;3.90;1.60;;;;;;;18.53;79.70;94935.97;5111833;28;20199;-80
2023/08/02 00:40:09;;;;;;;1.75;1.65;;;;;;;18.58;79.68;94943.06;5113034;28;20227;-82
2023/08/02 00:42:36;;;;;;;1.92;1.80;;;;;;;18.60;79.52;94938.44;5113582;28;20204;-80
2023/08/02 00:45:03;;;;;;;1.95;1.80;;;;;;;18.60;79.42;94941.03;5113313;28;20195;-82
2023/08/02 00:47:32;;;;;;;2.42;1.77;;;;;;;18.64;78.96;94934.31;5113138;28;20614;-80
2023/08/02 00:50:00;;;;;;;2.45;2.08;;;;;;;18.66;78.78;94928.84;5110353;28;20223;-80
2023/08/02 00:52:27;;;;;;;2.95;1.80;;;;;;;18.58;78.81;94917.78;5114134;28;20203;-80
2023/08/02 00:54:54;;;;;;;3.58;2.00;;;;;;;18.57;78.86;94916.19;5116025;28;20223;-82
2023/08/02 00:57:21;;;;;;;5.20;1.80;;;;;;;18.63;78.67;94909.25;5116014;28;20203;-81
2023/08/02 00:59:49;;;;;;;3.72;1.70;;;;;;;18.60;78.42;94901.94;5116278;28;20290;-81
2023/08/02 01:02:15;;;;;;;1.88;1.77;;;;;;;18.53;77.98;94893.44;5116143;28;20203;-80
2023/08/02 01:04:42;;;;;;;1.88;1.70;;;;;;;18.47;78.28;94892.59;5115349;28;20207;-81
2023/08/02 01:07:17;;;;;;;1.73;1.63;;;;;;;18.47;77.96;94882.16;5113247;28;20203;-80
2023/08/02 01:09:47;;;;;;;2.15;1.67;;;;;;;18.49;77.83;94884.53;5116220;28;20198;-80
2023/08/02 01:12:16;;;;;;;4.28;2.08;;;;;;;18.44;77.53;94874.84;5097479;28;20203;-80
2023/08/02 01:14:49;;;;;;;2.60;2.00;;;;;;;18.44;77.76;94869.66;5094560;28;20224;-82
2023/08/02 01:17:16;;;;;;;1.73;1.50;;;;;;;18.36;77.31;94861.44;5094712;28;20243;-80
2023/08/02 01:19:43;;;;;;;4.80;1.80;;;;;;;18.39;77.35;94853.16;5092450;28;20196;-80
2023/08/02 01:22:11;;;;;;;2.35;2.13;;;;;;;18.39;76.98;94850.53;5093666;28;20294;-81
2023/08/02 01:24:38;;;;;;;3.70;1.85;;;;;;;18.40;76.78;94836.47;5117728;28;20199;-80
2023/08/02 01:27:08;;;;;;;2.80;2.22;;;;;;;18.46;76.48;94830.31;5118269;28;20191;-82
2023/08/02 01:29:37;;;;;;;2.55;1.95;;;;;;;18.44;76.18;94814.91;5118809;27;20199;-81
2023/08/02 01:32:06;;;;;;;2.55;1.75;;;;;;;18.43;75.71;94797.69;5118383;28;20199;-81
2023/08/02 01:34:33;;;;;;;2.20;1.85;;;;;;;18.43;75.58;94794.28;5118160;28;20223;-81
2023/08/02 01:37:00;;;;;;;4.30;2.10;;;;;;;18.45;75.46;94789.63;5118170;28;20211;-80
2023/08/02 01:39:28;;;;;;;3.47;1.88;;;;;;;18.46;75.36;94771.13;5116867;28;20203;-82
2023/08/02 01:41:54;;;;;;;2.10;1.80;;;;;;;18.41;75.39;94785.94;5118477;28;20294;-80
2023/08/02 01:44:21;;;;;;;1.92;1.83;;;;;;;18.32;75.97;94793.38;5118288;28;20195;-82
2023/08/02 01:46:47;;;;;;;2.72;1.90;;;;;;;18.28;76.63;94800.88;5118008;28;20248;-82
2023/08/02 01:49:13;;;;;;;2.08;1.70;;;;;;;18.20;76.13;94783.09;5118591;28;20195;-81
2023/08/02 01:51:40;;;;;;;8.65;2.03;;;;;;;18.18;76.49;94781.75;5118846;28;20287;-81
2023/08/02 01:54:06;;;;;;;3.38;2.13;;;;;;;18.11;77.41;94805.38;5118443;28;20215;-80
2023/08/02 01:56:34;;;;;;;4.28;2.05;;;;;;;18.13;77.52;94799.94;5116717;28;20215;-81
2023/08/02 01:59:00;;;;;;;2.28;1.80;;;;;;;18.13;77.39;94799.94;5118720;28;20207;-82
2023/08/02 02:01:27;;;;;;;2.08;1.77;;;;;;;18.17;77.60;94801.03;5117251;28;20223;-80
2023/08/02 02:03:53;;;;;;;3.00;2.13;;;;;;;18.20;77.28;94792.72;5117043;28;20230;-82
2023/08/02 02:06:20;;;;;;;1.90;1.70;;;;;;;18.16;77.42;94795.03;5117711;28;20192;-81
2023/08/02 02:08:46;;;;;;;2.30;2.10;;;;;;;18.10;77.66;94792.59;5118091;28;20199;-81
2023/08/02 02:11:12;;;;;;;2.08;1.88;;;;;;;18.12;77.34;94787.94;5114349;28;20591;-81
2023/08/02 02:13:40;;;;;;;2.03;1.80;;;;;;;18.12;77.36;94791.31;5117066;28;20211;-81
2023/08/02 02:16:07;;;;;;;2.65;2.20;;;;;;;18.06;77.45;94784.50;5117294;28;20634;-80
2023/08/02 02:18:33;;;;;;;2.00;1.80;;;;;;;18.07;77.67;94787.91;5117999;28;20222;-81
2023/08/02 02:21:00;;;;;;;2.45;2.10;;;;;;;18.06;77.35;94775.91;5118418;28;20223;-81
2023/08/02 02:23:26;;;;;;;2.83;1.80;;;;;;;18.04;77.63;94778.75;5117623;28;20615;-81
2023/08/02 02:25:52;;;;;;;2.20;2.00;;;;;;;18.03;77.64;94782.38;5118056;28;20195;-80
2023/08/02 02:28:20;;;;;;;2.60;2.05;;;;;;;17.97;77.89;94777.34;5115986;28;20823;-81
2023/08/02 02:30:49;;;;;;;2.58;2.10;;;;;;;17.94;78.02;94776.00;5117361;28;20227;-81
2023/08/02 02:33:15;;;;;;;3.30;1.98;;;;;;;17.97;77.95;94769.53;5117942;28;20203;-81
2023/08/02 02:35:41;;;;;;;4.15;1.85;;;;;;;18.00;77.78;94759.41;5117030;28;20727;-81
2023/08/02 02:38:08;;;;;;;2.10;1.90;;;;;;;18.01;77.34;94749.78;5109689;28;20195;-80
2023/08/02 02:40:34;;;;;;;2.40;2.20;;;;;;;17.94;77.57;94745.53;5098764;28;20240;-80
2023/08/02 02:43:00;;;;;;;2.47;2.03;;;;;;;17.92;77.43;94744.19;5114605;28;20209;-81
2023/08/02 02:45:27;;;;;;;2.47;2.28;;;;;;;17.88;77.58;94749.13;5117052;28;20194;-81
2023/08/02 02:47:55;;;;;;;2.15;2.00;;;;;;;17.81;78.21;94760.75;5116739;28;20208;-81
2023/08/02 02:50:21;;;;;;;3.15;2.25;;;;;;;17.75;78.37;94759.88;5116148;28;20276;-80
2023/08/02 02:52:47;;;;;;;3.92;2.53;;;;;;;17.71;78.76;94778.81;5117391;28;20210;-81
2023/08/02 02:55:14;;;;;;;2.47;2.13;;;;;;;17.69;78.77;94779.09;5116769;28;20245;-80
2023/08/02 02:57:40;;;;;;;2.20;2.00;;;;;;;17.71;78.83;94773.59;5116830;28;20736;-82
2023/08/02 03:00:08;;;;;;;3.42;2.22;;;;;;;17.59;79.62;94790.09;5115224;28;20280;-79
2023/08/02 03:02:34;;;;;;;2.85;2.10;;;;;;;17.57;79.54;94794.75;5116711;28;20207;-81
2023/08/02 03:05:02;;;;;;;4.80;2.50;;;;;;;17.55;79.76;94783.78;5117061;28;20192;-80
2023/08/02 03:07:29;;;;;;;2.95;2.25;;;;;;;17.49;79.86;94778.78;5117048;28;20187;-81
2023/08/02 03:09:55;;;;;;;3.15;2.40;;;;;;;17.49;79.76;94776.97;5116736;28;20715;-81
2023/08/02 03:12:23;;;;;;;3.00;2.30;;;;;;;17.49;79.64;94766.53;5117170;28;20207;-82
2023/08/02 03:14:49;;;;;;;2.53;1.98;;;;;;;17.49;79.56;94757.94;5114852;28;20217;-80
2023/08/02 03:17:16;;;;;;;3.15;2.30;;;;;;;17.50;79.57;94749.13;5115881;28;20203;-82
2023/08/02 03:19:42;;;;;;;2.50;2.25;;;;;;;17.38;79.99;94748.41;5116618;28;20210;-80
2023/08/02 03:22:10;;;;;;;2.70;1.90;;;;;;;17.35;79.97;94760.06;5116495;28;20222;-81
2023/08/02 03:24:36;;;;;;;3.05;2.40;;;;;;;17.25;80.36;94770.34;5116980;28;20195;-81
2023/08/02 03:27:03;;;;;;;2.50;2.30;;;;;;;17.22;80.79;94776.03;5116651;28;20199;-80
2023/08/02 03:29:30;;;;;;;3.25;2.50;;;;;;;17.21;80.79;94779.66;5116007;28;20214;-81
2023/08/02 03:31:56;;;;;;;3.10;2.25;;;;;;;17.19;80.37;94764.28;5115112;28;20199;-81
2023/08/02 03:34:25;;;;;;;2.60;2.30;;;;;;;17.16;81.12;94776.97;5116017;28;20545;-81
2023/08/02 03:36:51;;;;;;;3.55;2.25;;;;;;;17.16;80.85;94772.53;5114748;28;20215;-80
2023/08/02 03:39:19;;;;;;;5.15;2.35;;;;;;;17.17;80.86;94775.94;5103008;28;20269;-81
2023/08/02 03:41:46;;;;;;;2.50;2.10;;;;;;;17.03;81.35;94772.88;5095522;28;20238;-80
2023/08/02 03:44:12;;;;;;;4.43;2.50;;;;;;;17.08;81.11;94772.16;5097132;28;20203;-81
2023/08/02 03:46:38;;;;;;;4.80;2.20;;;;;;;17.12;81.14;94763.66;5114546;28;20782;-81
2023/08/02 03:49:05;;;;;;;2.75;2.50;;;;;;;17.13;80.71;94762.59;5112760;28;20203;-80
2023/08/02 03:51:31;;;;;;;4.00;2.45;;;;;;;17.20;80.26;94746.84;5114552;28;20852;-80
2023/08/02 03:53:57;;;;;;;2.47;2.10;;;;;;;17.20;80.20;94749.44;5114090;28;20260;-80
2023/08/02 03:56:25;;;;;;;2.92;2.22;;;;;;;17.17;79.96;94735.09;5113955;28;20211;-81
2023/08/02 03:58:52;;;;;;;2.63;2.20;;;;;;;17.20;80.01;94736.44;5102627;28;20196;-79
2023/08/02 04:01:18;;;;;;;2.72;2.45;;;;;;;17.21;79.36;94727.63;5105876;28;20789;-80
2023/08/02 04:03:45;;;;;;;3.80;2.38;;;;;;;17.20;79.06;94721.63;5095726;28;20673;-80
2023/08/02 04:06:11;;;;;;;5.38;2.35;;;;;;;17.11;79.08;94706.66;5114776;28;20199;-80
2023/08/02 04:08:37;;;;;;;2.50;2.30;;;;;;;17.10;79.29;94711.09;5096952;28;20230;-81
2023/08/02 04:11:04;;;;;;;3.85;2.42;;;;;;;17.15;78.82;94702.53;5095316;28;20600;-80
2023/08/02 04:13:33;;;;;;;4.22;2.45;;;;;;;17.08;78.26;94688.94;5093739;28;20220;-80
2023/08/02 04:16:00;;;;;;;3.00;2.70;;;;;;;17.09;78.27;94703.53;5094342;28;20689;-80
2023/08/02 04:18:29;;;;;;;3.03;2.13;;;;;;;17.16;77.80;94691.13;5094060;28;20460;-82
2023/08/02 04:20:59;;;;;;;2.40;2.20;;;;;;;17.19;77.21;94675.03;5105883;28;20227;-82
2023/08/02 04:23:26;;;;;;;2.33;2.13;;;;;;;17.24;76.98;94662.91;5111013;28;20256;-81
2023/08/02 04:25:52;;;;;;;2.25;2.00;;;;;;;17.35;76.36;94652.59;5094838;28;20200;-80
2023/08/02 04:28:19;;;;;;;2.50;2.30;;;;;;;17.41;75.98;94638.63;5096956;28;20211;-82
2023/08/02 04:30:51;;;;;;;2.58;2.20;;;;;;;17.50;75.44;94621.59;5099497;28;20570;-81
2023/08/02 04:33:17;;;;;;;3.42;2.63;;;;;;;17.51;76.00;94628.38;5108235;28;20544;-82
2023/08/02 04:35:44;;;;;;;2.95;2.28;;;;;;;17.61;75.42;94621.44;5115127;28;20211;-81
2023/08/02 04:38:10;;;;;;;3.10;2.70;;;;;;;17.68;74.97;94607.50;5116279;28;20211;-81
2023/08/02 04:40:38;;;;;;;3.40;2.20;;;;;;;17.74;74.41;94599.47;5118968;28;20215;-82
2023/08/02 04:43:04;;;;;;;2.63;2.35;;;;;;;17.72;75.69;94627.56;5118979;28;20188;-81
2023/08/02 04:45:31;;;;;;;3.08;2.38;;;;;;;17.80;74.92;94603.72;5117964;28;20194;-82
2023/08/02 04:47:58;;;;;;;3.85;2.45;;;;;;;17.86;74.44;94597.53;5118593;28;20194;-80
2023/08/02 04:50:25;;;;;;;3.45;2.38;;;;;;;17.89;73.84;94559.81;5116162;28;20219;-81
2023/08/02 04:52:51;;;;;;;3.50;2.50;;;;;;;17.94;74.19;94565.03;5114671;28;20191;-80
2023/08/02 04:55:18;;;;;;;4.35;2.20;;;;;;;17.94;74.42;94565.81;5117017;28;20693;-80
2023/08/02 04:57:44;;;;;;;5.03;2.55;;;;;;;17.86;74.94;94568.88;5116882;27;20198;-80
2023/08/02 05:00:11;;;;;;;2.90;2.25;;;;;;;17.86;74.72;94555.09;5117244;27;20228;-80
2023/08/02 05:02:38;;;;;;;2.65;2.33;;;;;;;17.94;74.26;94549.41;5114511;28;20203;-80
2023/08/02 05:05:06;;;;;;;2.30;2.08;;;;;;;17.96;73.81;94539.53;5116816;28;20207;-80
2023/08/02 05:07:34;;;;;;;2.20;2.00;;;;;;;18.01;73.85;94534.38;5113653;28;20692;-79
2023/08/02 05:10:03;;;;;;;3.83;2.40;;;;;;;17.98;74.17;94537.47;5114963;28;20215;-82
2023/08/02 05:12:31;;;;;;;2.55;2.00;;;;;;;18.04;73.68;94533.09;5114670;28;20219;-78
2023/08/02 05:14:58;;;;;;;3.42;2.55;;;;;;;18.10;73.96;94538.09;5088254;28;20211;-82
2023/08/02 05:17:24;;;;;;;2.47;2.10;;;;;;;18.18;73.59;94527.22;5112327;28;20668;-79
2023/08/02 05:19:51;;;;;;;2.47;2.28;;;;;;;18.23;73.14;94527.25;5113860;28;20206;-80
2023/08/02 05:22:18;;;;;;;3.20;2.45;;;;;;;18.18;72.65;94508.97;5114031;28;20888;-82
2023/08/02 05:24:45;;;;;;;3.03;2.25;;;;;;;18.25;72.64;94512.16;5111068;28;20203;-80
2023/08/02 05:27:11;;;;;;;3.38;2.30;;;;;;;18.28;71.45;94482.19;5109613;28;20676;-82
2023/08/02 05:29:38;;;;;;;2.35;2.15;;;;;;;18.30;70.96;94454.84;5103164;28;20207;-82
2023/08/02 05:32:05;;;;;;;2.75;2.50;;;;;;;18.32;70.07;94425.16;5117225;28;20246;-82
2023/08/02 05:34:31;;;;;;;2.47;2.20;;;;;;;18.38;70.35;94442.38;5108512;28;20211;-82
2023/08/02 05:36:58;;;;;;;3.00;1.92;;;;;;;18.35;69.73;94419.44;5095446;28;20224;-82
2023/08/02 05:39:25;;;;;;;2.30;1.90;;;;;;;18.36;70.72;94445.25;5095678;28;20204;-82
2023/08/02 05:41:52;;;;;;;2.35;1.75;;;;;;;18.37;70.31;94409.53;5111026;28;20224;-82
2023/08/02 05:44:18;;;;;;;2.90;2.35;;;;;;;18.34;69.51;94389.19;5116947;28;20202;-82
2023/08/02 05:46:47;;;;;;;2.30;1.98;;;;;;;18.32;69.48;94405.09;5099908;28;20192;-80
2023/08/02 05:49:13;;;;;;;2.47;1.77;;;;;;;18.28;70.01;94423.03;5118398;28;20199;-82
2023/08/02 05:51:41;;;;;;;2.53;1.60;;;;;;;18.29;70.16;94410.78;5118255;28;20318;-82
2023/08/02 05:54:07;;;;;;;3.55;1.70;;;;;;;18.21;69.01;94373.00;5106433;28;20192;-82
2023/08/02 05:56:35;;;;;;;2.90;1.90;;;;;;;18.16;68.82;94357.34;5099303;28;20228;-81
2023/08/02 05:59:01;;;;;;;2.30;1.80;;;;;;;18.19;69.77;94395.91;5117424;28;20210;-81
2023/08/02 06:01:28;;;;;;;3.15;1.77;;;;;;;18.22;69.53;94386.81;5116900;28;20246;-82
2023/08/02 06:03:54;;;;;;;2.03;1.83;;;;;;;18.18;68.90;94367.50;5095620;28;20196;-81
2023/08/02 06:06:24;;;;;;;3.08;1.90;;;;;;;18.14;68.86;94358.63;5116976;28;20680;-82
2023/08/02 06:08:52;;;;;;;2.63;1.80;;;;;;;18.18;69.26;94370.09;5117704;28;20260;-82
2023/08/02 06:11:18;;;;;;;3.00;2.05;;;;;;;18.13;69.10;94362.25;5116507;28;20615;-82
2023/08/02 06:13:48;;;;;;;2.25;1.73;;;;;;;18.16;69.33;94367.75;5112707;28;20302;-82
2023/08/02 06:16:15;;;;;;;3.45;2.38;;;;;;;18.17;69.96;94386.78;5112703;28;20220;-82
2023/08/02 06:18:44;;;;;;;3.33;2.10;;;;;;;18.30;69.82;94396.72;5115483;28;20192;-82
2023/08/02 06:21:10;;;;;;;2.47;1.92;;;;;;;18.37;69.83;94404.34;5116018;28;20252;-81
2023/08/02 06:23:37;;;;;;;4.82;1.92;;;;;;;18.42;69.99;94410.38;5114254;28;20199;-83
2023/08/02 06:26:07;;;;;;;2.13;1.85;;;;;;;18.34;69.63;94403.00;5114102;28;20191;-80
2023/08/02 06:28:38;;;;;;;2.00;1.80;;;;;;;18.40;69.04;94382.97;5109506;28;20205;-82
2023/08/02 06:31:07;;;;;;;2.38;1.63;;;;;;;18.47;69.21;94399.94;5108608;28;20247;-82
2023/08/02 06:33:33;;;;;;;3.00;1.70;;;;;;;18.51;69.33;94408.81;5099013;28;20235;-82
2023/08/02 06:36:06;;;;;;;2.58;1.70;;;;;;;18.56;68.71;94388.00;5113076;28;20256;-84
2023/08/02 06:38:33;;;;;;;2.75;1.50;;;;;;;18.63;68.59;94400.84;5082558;28;20211;-83
2023/08/02 06:41:03;;;;;;;4.63;1.90;;;;;;;18.73;68.94;94408.69;5113325;28;20926;-80
2023/08/02 06:43:29;;;;;;;3.95;1.77;;;;;;;18.75;68.67;94406.59;5112788;28;20206;-79
2023/08/02 06:45:56;;;;;;;2.30;1.80;;;;;;;18.71;68.89;94408.16;5107878;28;20200;-84
2023/08/02 06:48:26;;;;;;;2.72;1.90;;;;;;;18.74;68.86;94410.25;5109610;28;20218;-82
2023/08/02 06:50:52;;;;;;;1.90;1.70;;;;;;;18.72;68.32;94377.66;5112431;28;20215;-83
2023/08/02 06:53:23;;;;;;;3.40;1.70;;;;;;;18.74;68.39;94405.03;5110917;28;20203;-83
2023/08/02 06:55:51;;;;;;;5.15;1.80;;;;;;;18.68;70.60;94460.03;5111101;28;20196;-83
2023/08/02 06:58:19;;;;;;;1.80;1.70;;;;;;;18.63;70.47;94461.59;5110611;28;20652;-83
2023/08/02 07:00:46;;;;;;;2.45;1.90;;;;;;;18.63;70.97;94484.28;5108556;28;20215;-82
2023/08/02 07:03:12;;;;;;;2.58;2.08;;;;;;;18.69;71.16;94488.44;5106735;28;20699;-82
2023/08/02 07:05:40;;;;;;;2.05;1.88;;;;;;;18.70;71.07;94494.44;5108463;28;20210;-83
2023/08/02 07:08:08;;;;;;;1.80;1.50;;;;;;;18.72;72.29;94523.66;5113161;28;20195;-83
2023/08/02 07:10:41;;;;;;;2.90;1.60;;;;;;;18.74;72.72;94530.22;5114424;28;20223;-81
2023/08/02 07:13:11;;;;;;;2.05;1.83;;;;;;;18.72;72.98;94536.72;5113913;27;20203;-83
2023/08/02 07:15:40;;;;;;;1.83;1.55;;;;;;;18.72;74.21;94568.00;5113350;28;20214;-83
2023/08/02 07:18:08;;;;;;;2.53;1.83;;;;;;;18.68;74.40;94570.31;5109671;28;20226;-83
2023/08/02 07:20:36;;;;;;;2.78;1.92;;;;;;;18.67;76.18;94604.47;5114252;28;20668;-81
2023/08/02 07:23:04;;;;;;;1.75;1.65;;;;;;;18.70;76.17;94602.16;5111349;28;20223;-83
2023/08/02 07:25:31;;;;;;;5.13;2.00;;;;;;;18.73;76.22;94606.06;5103774;28;20196;-81
2023/08/02 07:27:58;;;;;;;5.70;1.90;;;;;;;18.77;77.34;94628.00;5113208;28;20191;-81
2023/08/02 07:30:26;;;;;;;2.22;1.90;;;;;;;18.78;77.69;94630.38;5112124;28;20719;-81
2023/08/02 07:32:53;;;;;;;4.95;2.00;;;;;;;18.79;78.03;94644.19;5111413;28;20211;-82
2023/08/02 07:35:19;;;;;;;2.08;1.90;;;;;;;18.80;78.27;94645.78;5110576;28;20208;-83
2023/08/02 07:37:46;;;;;;;2.90;1.85;;;;;;;18.82;78.83;94661.97;5092850;28;20216;-82
2023/08/02 07:40:14;;;;;;;2.55;1.75;;;;;;;18.86;78.86;94657.78;5090981;28;20223;-83
2023/08/02 07:42:40;;;;;;;2.30;1.80;;;;;;;18.86;79.65;94670.84;5092386;28;20305;-83
2023/08/02 07:45:10;;;;;;;2.90;2.08;;;;;;;18.85;79.17;94667.47;5102461;28;20195;-83
2023/08/02 07:47:38;;;;;;;2.80;2.30;;;;;;;18.85;80.28;94690.94;5093622;28;20224;-81
2023/08/02 07:50:06;;;;;;;3.08;1.95;;;;;;;18.83;79.77;94700.84;5093084;28;20216;-81
2023/08/02 07:52:34;;;;;;;2.80;1.90;;;;;;;18.74;79.23;94678.84;5111015;28;20210;-82
2023/08/02 07:55:01;;;;;;;2.92;1.88;;;;;;;18.70;79.28;94669.94;5111078;28;20234;-81
2023/08/02 07:57:33;;;;;;;2.22;1.88;;;;;;;18.71;80.90;94699.41;5109329;28;20226;-81
2023/08/02 08:00:02;;;;;;;3.13;2.00;;;;;;;18.77;81.06;94701.03;5091211;28;20204;-81
2023/08/02 08:02:28;;;;;;;2.30;2.00;;;;;;;18.81;81.25;94710.72;5093485;28;20210;-83
2023/08/02 08:04:55;;;;;;;5.90;2.17;;;;;;;18.75;83.86;94755.25;5101093;28;20222;-79
2023/08/02 08:07:22;;;;;;;2.28;2.00;;;;;;;18.77;82.35;94722.69;5105214;28;20206;-82
2023/08/02 08:09:51;;;;;;;4.32;2.03;;;;;;;18.83;82.40;94720.91;5099736;28;20204;-82
2023/08/02 08:12:17;;;;;;;4.82;2.33;;;;;;;18.84;84.24;94749.38;5114082;28;20199;-82
2023/08/02 08:14:45;;;;;;;2.60;2.35;;;;;;;18.86;84.36;94755.09;5114593;28;20221;-82
2023/08/02 08:17:14;;;;;;;3.78;2.20;;;;;;;18.87;82.09;94707.09;5113383;28;20241;-82
2023/08/02 08:19:42;;;;;;;4.80;2.00;;;;;;;18.94;82.40;94710.31;5111742;28;20772;-82
2023/08/02 08:22:08;;;;;;;3.35;2.10;;;;;;;18.89;83.30;94722.50;5094921;28;20231;-82
2023/08/02 08:24:35;;;;;;;3.13;2.20;;;;;;;18.85;83.59;94732.69;5115175;28;20211;-81
2023/08/02 08:27:03;;;;;;;2.50;1.85;;;;;;;18.85;83.45;94713.63;5097003;28;20203;-81
2023/08/02 08:29:30;;;;;;;2.17;1.90;;;;;;;18.83;83.72;94729.53;5108327;28;20218;-83
2023/08/02 08:31:58;;;;;;;6.68;2.92;;;;;;;18.85;83.72;94721.47;5115175;28;20219;-81
2023/08/02 08:34:25;;;;;;;2.45;2.20;;;;;;;18.83;84.40;94733.97;5104427;28;20206;-82
2023/08/02 08:36:54;;;;;;;2.30;2.10;;;;;;;18.92;84.64;94741.06;5116043;28;20847;-83
2023/08/02 08:39:20;;;;;;;4.00;2.35;;;;;;;18.97;86.25;94756.75;5112095;28;20196;-83
2023/08/02 08:41:47;;;;;;;2.15;1.92;;;;;;;18.93;87.38;94779.16;5105696;28;20242;-82
2023/08/02 08:44:16;;;;;;;3.25;2.20;;;;;;;18.95;86.18;94758.84;5097765;28;20857;-82
2023/08/02 08:46:50;;;;;;;2.72;2.42;;;;;;;19.00;86.06;94749.47;5114198;28;20600;-83
2023/08/02 08:49:21;;;;;;;3.08;2.20;;;;;;;19.05;85.99;94752.91;5116655;28;20191;-82
2023/08/02 08:51:53;;;;;;;2.60;2.10;;;;;;;18.94;86.15;94757.25;5118987;28;20218;-82
2023/08/02 08:54:25;;;;;;;4.28;2.20;;;;;;;18.96;86.36;94759.63;5116518;28;20196;-83
2023/08/02 08:56:53;;;;;;;2.33;2.10;;;;;;;18.95;87.63;94779.72;5117314;28;20283;-83
2023/08/02 08:59:20;;;;;;;2.33;2.00;;;;;;;18.90;86.96;94761.41;5113121;28;20668;-81
2023/08/02 09:01:47;;;;;;;3.08;2.33;;;;;;;18.95;87.82;94782.31;5114963;28;20218;-81
2023/08/02 09:04:19;;;;;;;4.32;2.47;;;;;;;18.98;89.39;94809.72;5117176;28;20206;-81
2023/08/02 09:06:50;;;;;;;3.22;2.30;;;;;;;19.01;89.53;94811.84;5118157;28;20626;-84
2023/08/02 09:09:20;;;;;;;3.08;2.20;;;;;;;19.02;89.70;94810.03;5103781;28;20203;-82
2023/08/02 09:11:47;;;;;;;2.67;2.20;;;;;;;19.01;89.23;94800.63;5106819;28;20246;-82
2023/08/02 09:14:15;;;;;;;2.78;2.10;;;;;;;18.88;89.30;94791.38;5111621;28;20290;-83
2023/08/02 09:17:08;;;;;;;3.55;2.22;;;;;;;19.01;89.89;94792.81;5107355;28;20199;-82
2023/08/02 09:19:38;;;;;;;2.60;2.30;;;;;;;19.08;90.54;94809.81;5090774;28;20284;-82
2023/08/02 09:22:09;;;;;;;2.42;2.03;;;;;;;18.97;91.15;94815.97;5111240;28;20207;-81
2023/08/02 09:24:37;;;;;;;2.45;2.00;;;;;;;19.07;89.67;94789.97;5111731;28;20200;-81
2023/08/02 09:27:08;;;;;;;3.80;2.33;;;;;;;19.06;89.89;94787.59;5108961;28;20188;-82
2023/08/02 09:29:47;;;;;;;2.60;2.40;;;;;;;19.05;90.21;94791.28;5109326;28;20191;-83
2023/08/02 09:32:13;;;;;;;2.47;2.25;;;;;;;18.98;90.29;94789.66;5110228;28;20202;-82
2023/08/02 09:34:50;;;;;;;2.25;2.05;;;;;;;19.00;90.03;94778.19;5107657;28;20195;-83
2023/08/02 09:37:31;;;;;;;2.38;2.15;;;;;;;18.97;90.76;94785.47;5104880;28;20220;-81
2023/08/02 09:39:57;;;;;;;4.30;2.40;;;;;;;19.02;91.79;94789.16;5109296;28;20213;-83
2023/08/02 09:42:29;;;;;;;2.40;2.20;;;;;;;18.91;91.92;94791.66;5113274;28;20210;-81
2023/08/02 09:44:58;;;;;;;2.85;2.53;;;;;;;18.88;92.54;94796.59;5109448;28;20572;-81
2023/08/02 09:47:26;;;;;;;2.38;2.13;;;;;;;18.80;91.59;94782.19;5110350;28;20271;-83
2023/08/02 09:50:09;;;;;;;2.58;2.00;;;;;;;18.84;92.79;94808.56;5111047;28;20203;-82
2023/08/02 09:52:37;;;;;;;2.47;2.28;;;;;;;18.76;92.35;94804.56;5106239;28;20291;-81
2023/08/02 09:55:04;;;;;;;3.15;2.45;;;;;;;18.59;91.50;94778.59;5109995;28;20222;-83
2023/08/02 09:57:35;;;;;;;2.97;2.50;;;;;;;18.57;93.17;94783.22;5103343;28;20219;-81
2023/08/02 10:00:04;;;;;;;2.80;2.40;;;;;;;18.64;94.75;94803.94;5107203;28;20846;-80
2023/08/02 10:02:31;;;;;;;3.67;2.45;;;;;;;18.76;95.65;94807.19;5110927;28;20188;-83
2023/08/02 10:05:00;;;;;;;3.42;2.97;;;;;;;18.72;98.55;94821.72;5106574;28;20199;-83
2023/08/02 10:07:37;;;;;;;3.97;2.30;;;;;;;18.71;97.61;94814.94;5107094;28;20196;-81
2023/08/02 10:10:06;;;;;;;4.68;3.00;;;;;;;18.57;99.72;94821.56;5105930;28;20727;-81
2023/08/02 10:12:37;;;;;;;6.43;2.80;;;;;;;18.48;100.00;94836.81;5111036;28;20207;-81
2023/08/02 10:15:04;;;;;;;3.00;2.65;;;;;;;18.43;98.77;94800.28;5109834;28;20199;-83
2023/08/02 10:17:31;;;;;;;3.33;2.72;;;;;;;18.36;100.00;94830.97;5101111;28;20587;-81
2023/08/02 10:19:59;;;;;;;2.85;2.35;;;;;;;18.28;98.37;94787.88;5107246;28;20202;-81
2023/08/02 10:22:26;;;;;;;4.38;2.38;;;;;;;18.26;97.70;94774.31;5107706;28;20223;-81
2023/08/02 10:24:56;;;;;;;2.70;2.50;;;;;;;18.20;99.79;94790.91;5106838;28;20217;-81
2023/08/02 10:27:24;;;;;;;2.35;2.13;;;;;;;18.06;100.00;94781.91;5108299;28;20200;-83
2023/08/02 10:29:51;;;;;;;2.83;2.30;;;;;;;17.88;99.61;94759.53;5098854;28;20207;-82
2023/08/02 10:32:21;;;;;;;2.63;2.05;;;;;;;17.79;100.00;94781.00;5111475;28;20196;-83
2023/08/02 10:34:49;;;;;;;4.35;2.35;;;;;;;17.82;100.00;94785.75;5112705;28;20198;-83
2023/08/02 10:37:19;;;;;;;2.88;2.40;;;;;;;17.78;100.00;94801.06;5106491;28;20199;-82
2023/08/02 10:39:57;;;;;;;3.35;2.53;;;;;;;17.88;100.00;94806.41;5110854;28;20206;-82
2023/08/02 10:42:29;;;;;;;2.85;2.55;;;;;;;17.91;100.00;94803.31;5106849;28;20199;-81
2023/08/02 10:45:18;;;;;;;3.42;3.08;;;;;;;18.09;100.00;94806.69;5107538;28;20238;-83
2023/08/02 10:47:45;;;;;;;3.97;3.00;;;;;;;18.23;100.00;94806.06;5107756;28;20279;-80
2023/08/02 10:50:48;;;;;;;3.75;2.60;;;;;;;18.46;100.00;94765.94;5110226;28;20668;-84
2023/08/02 10:53:14;;;;;;;3.17;2.85;;;;;;;18.74;100.00;94790.19;5107638;28;20852;-83
2023/08/02 10:56:16;;;;;;;3.47;2.53;;;;;;;18.84;100.00;94718.06;5097815;28;20206;-83
2023/08/02 10:58:53;;;;;;;3.63;3.00;;;;;;;18.91;100.00;94718.63;5109568;28;20223;-83
2023/08/02 11:01:23;;;;;;;2.50;2.13;;;;;;;19.16;100.00;94691.16;5106865;27;20211;-81
2023/08/02 11:03:49;;;;;;;2.40;2.20;;;;;;;19.35;98.14;94670.63;5111048;28;20192;-82
2023/08/02 11:06:30;;;;;;;2.90;2.22;;;;;;;19.75;97.67;94642.13;5108126;28;20195;-81
2023/08/02 11:08:56;;;;;;;2.88;2.10;;;;;;;20.13;94.31;94606.16;5110319;28;20664;-82
2023/08/02 11:11:38;;;;;;;2.42;2.22;;;;;;;20.22;94.94;94600.13;5105477;28;20234;-83
2023/08/02 11:14:06;;;;;;;3.67;2.70;;;;;;;20.35;89.54;94534.28;5109979;28;20203;-83
2023/08/02 11:16:42;;;;;;;3.22;2.10;;;;;;;20.47;88.68;94507.09;5109399;28;20203;-81
2023/08/02 11:19:09;;;;;;;2.38;2.17;;;;;;;20.72;84.39;94439.03;5106084;28;20211;-83
2023/08/02 11:21:36;;;;;;;2.78;2.22;;;;;;;20.72;79.36;94331.78;5108083;28;20658;-81
2023/08/02 11:24:03;;;;;;;2.63;2.20;;;;;;;20.90;85.04;94435.03;5105285;28;20191;-80
2023/08/02 11:26:34;;;;;;;2.50;2.30;;;;;;;21.16;85.48;94444.34;5107573;28;20191;-82
2023/08/02 11:29:01;;;;;;;2.33;2.13;;;;;;;21.21;83.54;94412.13;5108740;28;20191;-81
2023/08/02 11:31:29;;;;;;;2.42;2.20;;;;;;;21.22;81.21;94364.72;5108196;28;20731;-80
2023/08/02 11:33:58;;;;;;;2.65;2.13;;;;;;;21.26;81.04;94357.13;5109733;28;20627;-81
2023/08/02 11:36:26;;;;;;;2.20;2.10;;;;;;;21.29;82.09;94373.06;5104858;28;20184;-80
2023/08/02 11:38:53;;;;;;;2.83;2.20;;;;;;;21.11;79.91;94310.84;5106670;28;20251;-83